sensor_id;sensor_type;location;lat;lon;timestamp;pressure;altitude;pressure_sealevel;temperature;humidity
25238;BME280;13185;50.872;5.306;2022-12-13T00:01:15;100883.03;;;-6.10;94.32
25238;BME280;13185;50.872;5.306;2022-12-13T00:03:42;100875.22;;;-6.12;94.03
25238;BME280;13185;50.872;5.306;2022-12-13T00:06:10;100878.69;;;-6.13;94.13
25238;BME280;13185;50.872;5.306;2022-12-13T00:08:36;100869.13;;;-6.14;94.27
25238;BME280;13185;50.872;5.306;2022-12-13T00:11:04;100870.84;;;-6.14;94.29
25238;BME280;13185;50.872;5.306;2022-12-13T00:13:31;100877.81;;;-6.15;94.10
25238;BME280;13185;50.872;5.306;2022-12-13T00:16:00;100874.31;;;-6.18;94.06
25238;BME280;13185;50.872;5.306;2022-12-13T00:18:27;100869.09;;;-6.23;94.08
25238;BME280;13185;50.872;5.306;2022-12-13T00:20:52;100866.44;;;-6.26;93.94
25238;BME280;13185;50.872;5.306;2022-12-13T00:23:19;100862.09;;;-6.27;93.86
25238;BME280;13185;50.872;5.306;2022-12-13T00:25:45;100861.22;;;-6.29;93.75
25238;BME280;13185;50.872;5.306;2022-12-13T00:28:11;100855.13;;;-6.31;93.90
25238;BME280;13185;50.872;5.306;2022-12-13T00:30:37;100867.31;;;-6.34;93.67
25238;BME280;13185;50.872;5.306;2022-12-13T00:33:02;100855.97;;;-6.41;93.73
25238;BME280;13185;50.872;5.306;2022-12-13T00:35:28;100862.91;;;-6.42;93.77
25238;BME280;13185;50.872;5.306;2022-12-13T00:37:53;100858.56;;;-6.41;93.60
25238;BME280;13185;50.872;5.306;2022-12-13T00:40:18;100854.22;;;-6.41;93.88
25238;BME280;13185;50.872;5.306;2022-12-13T00:42:45;100849.00;;;-6.42;93.47
25238;BME280;13185;50.872;5.306;2022-12-13T00:45:11;100849.84;;;-6.46;93.34
25238;BME280;13185;50.872;5.306;2022-12-13T00:47:37;100847.22;;;-6.49;93.32
25238;BME280;13185;50.872;5.306;2022-12-13T00:50:03;100853.31;;;-6.50;93.31
25238;BME280;13185;50.872;5.306;2022-12-13T00:52:29;100846.34;;;-6.53;93.50
25238;BME280;13185;50.872;5.306;2022-12-13T00:54:55;100844.59;;;-6.55;93.21
25238;BME280;13185;50.872;5.306;2022-12-13T00:57:20;100841.13;;;-6.56;93.29
25238;BME280;13185;50.872;5.306;2022-12-13T00:59:46;100845.47;;;-6.56;93.24
25238;BME280;13185;50.872;5.306;2022-12-13T01:02:11;100833.28;;;-6.56;93.57
25238;BME280;13185;50.872;5.306;2022-12-13T01:04:37;100835.88;;;-6.57;93.48
25238;BME280;13185;50.872;5.306;2022-12-13T01:07:02;100832.38;;;-6.61;93.47
25238;BME280;13185;50.872;5.306;2022-12-13T01:09:29;100830.66;;;-6.62;93.20
25238;BME280;13185;50.872;5.306;2022-12-13T01:12:04;100826.28;;;-6.63;93.28
25238;BME280;13185;50.872;5.306;2022-12-13T01:14:30;100826.28;;;-6.63;93.10
25238;BME280;13185;50.872;5.306;2022-12-13T01:16:56;100825.44;;;-6.65;93.17
25238;BME280;13185;50.872;5.306;2022-12-13T01:19:23;100824.53;;;-6.67;93.06
25238;BME280;13185;50.872;5.306;2022-12-13T01:21:49;100824.53;;;-6.69;92.93
25238;BME280;13185;50.872;5.306;2022-12-13T01:24:18;100822.78;;;-6.71;93.07
25238;BME280;13185;50.872;5.306;2022-12-13T01:26:46;100831.47;;;-6.74;92.93
25238;BME280;13185;50.872;5.306;2022-12-13T01:29:11;100834.06;;;-6.75;93.01
25238;BME280;13185;50.872;5.306;2022-12-13T01:31:37;100835.81;;;-6.76;92.91
25238;BME280;13185;50.872;5.306;2022-12-13T01:34:07;100835.81;;;-6.77;92.86
25238;BME280;13185;50.872;5.306;2022-12-13T01:36:35;100831.41;;;-6.78;92.75
25238;BME280;13185;50.872;5.306;2022-12-13T01:39:01;100834.91;;;-6.81;92.86
25238;BME280;13185;50.872;5.306;2022-12-13T01:41:27;100827.94;;;-6.82;92.85
25238;BME280;13185;50.872;5.306;2022-12-13T01:43:56;100832.28;;;-6.82;92.82
25238;BME280;13185;50.872;5.306;2022-12-13T01:46:25;100835.75;;;-6.85;92.65
25238;BME280;13185;50.872;5.306;2022-12-13T01:51:43;100840.94;;;-6.89;92.69
25238;BME280;13185;50.872;5.306;2022-12-13T01:54:14;100838.31;;;-6.92;92.49
25238;BME280;13185;50.872;5.306;2022-12-13T01:56:45;100838.31;;;-6.92;92.78
25238;BME280;13185;50.872;5.306;2022-12-13T01:59:12;100840.91;;;-6.92;92.95
25238;BME280;13185;50.872;5.306;2022-12-13T02:01:39;100843.53;;;-6.94;92.70
25238;BME280;13185;50.872;5.306;2022-12-13T02:04:06;100844.38;;;-6.96;92.73
25238;BME280;13185;50.872;5.306;2022-12-13T02:06:35;100840.88;;;-6.99;92.73
25238;BME280;13185;50.872;5.306;2022-12-13T02:09:05;100840.88;;;-6.99;92.76
25238;BME280;13185;50.872;5.306;2022-12-13T02:11:33;100848.69;;;-7.00;92.80
25238;BME280;13185;50.872;5.306;2022-12-13T02:13:59;100842.59;;;-7.02;92.73
25238;BME280;13185;50.872;5.306;2022-12-13T02:32:15;100837.31;;;-7.10;92.80
25238;BME280;13185;50.872;5.306;2022-12-13T02:35:25;100833.88;;;-7.07;92.92
25238;BME280;13185;50.872;5.306;2022-12-13T02:40:26;100826.94;;;-7.07;92.93
25238;BME280;13185;50.872;5.306;2022-12-13T02:45:58;100819.13;;;-7.05;93.13
25238;BME280;13185;50.872;5.306;2022-12-13T02:48:30;100813.91;;;-7.05;93.22
25238;BME280;13185;50.872;5.306;2022-12-13T02:50:58;100817.38;;;-7.03;93.28
25238;BME280;13185;50.872;5.306;2022-12-13T02:53:25;100813.91;;;-7.02;93.48
25238;BME280;13185;50.872;5.306;2022-12-13T02:55:51;100804.34;;;-7.02;93.65
25238;BME280;13185;50.872;5.306;2022-12-13T02:58:22;100805.22;;;-7.00;93.65
25238;BME280;13185;50.872;5.306;2022-12-13T03:01:12;100798.28;;;-6.99;93.80
25238;BME280;13185;50.872;5.306;2022-12-13T03:06:50;100801.81;;;-6.94;94.36
25238;BME280;13185;50.872;5.306;2022-12-13T03:12:33;100808.75;;;-6.97;94.30
25238;BME280;13185;50.872;5.306;2022-12-13T03:15:30;100811.31;;;-7.02;94.53
25238;BME280;13185;50.872;5.306;2022-12-13T03:18:08;100806.97;;;-7.05;94.37
25238;BME280;13185;50.872;5.306;2022-12-13T03:20:52;100821.72;;;-7.05;94.24
25238;BME280;13185;50.872;5.306;2022-12-13T03:23:19;100814.78;;;-7.08;94.32
25238;BME280;13185;50.872;5.306;2022-12-13T03:25:46;100815.59;;;-7.10;94.17
25238;BME280;13185;50.872;5.306;2022-12-13T03:28:15;100806.88;;;-7.17;94.00
25238;BME280;13185;50.872;5.306;2022-12-13T03:30:40;100811.19;;;-7.20;94.13
25238;BME280;13185;50.872;5.306;2022-12-13T03:33:06;100807.72;;;-7.19;94.32
25238;BME280;13185;50.872;5.306;2022-12-13T03:35:31;100816.44;;;-7.17;94.31
25238;BME280;13185;50.872;5.306;2022-12-13T03:37:57;100816.44;;;-7.17;94.29
25238;BME280;13185;50.872;5.306;2022-12-13T03:40:23;100819.91;;;-7.18;94.14
25238;BME280;13185;50.872;5.306;2022-12-13T03:42:50;100806.84;;;-7.20;94.12
25238;BME280;13185;50.872;5.306;2022-12-13T03:45:15;100801.63;;;-7.21;94.08
25238;BME280;13185;50.872;5.306;2022-12-13T03:47:43;100795.53;;;-7.22;94.03
25238;BME280;13185;50.872;5.306;2022-12-13T03:50:08;100791.19;;;-7.23;93.99
25238;BME280;13185;50.872;5.306;2022-12-13T03:52:34;100789.47;;;-7.25;94.01
25238;BME280;13185;50.872;5.306;2022-12-13T03:54:59;100793.81;;;-7.23;94.17
25238;BME280;13185;50.872;5.306;2022-12-13T03:57:25;100786.00;;;-7.21;94.17
25238;BME280;13185;50.872;5.306;2022-12-13T03:59:50;100788.59;;;-7.23;94.48
25238;BME280;13185;50.872;5.306;2022-12-13T04:02:16;100781.66;;;-7.21;94.72
25238;BME280;13185;50.872;5.306;2022-12-13T04:04:41;100789.47;;;-7.19;94.60
25238;BME280;13185;50.872;5.306;2022-12-13T04:07:06;100790.38;;;-7.17;94.80
25238;BME280;13185;50.872;5.306;2022-12-13T04:09:32;100780.84;;;-7.15;94.73
25238;BME280;13185;50.872;5.306;2022-12-13T04:11:57;100782.56;;;-7.16;94.87
25238;BME280;13185;50.872;5.306;2022-12-13T04:14:41;100775.63;;;-7.15;95.00
25238;BME280;13185;50.872;5.306;2022-12-13T04:17:07;100775.63;;;-7.14;95.10
25238;BME280;13185;50.872;5.306;2022-12-13T04:19:32;100769.53;;;-7.11;95.28
25238;BME280;13185;50.872;5.306;2022-12-13T04:21:59;100762.59;;;-7.09;95.65
25238;BME280;13185;50.872;5.306;2022-12-13T04:24:24;100760.00;;;-7.09;95.41
25238;BME280;13185;50.872;5.306;2022-12-13T04:26:50;100757.38;;;-7.09;95.91
25238;BME280;13185;50.872;5.306;2022-12-13T04:29:15;100760.03;;;-7.06;96.10
25238;BME280;13185;50.872;5.306;2022-12-13T04:31:41;100762.66;;;-7.03;96.18
25238;BME280;13185;50.872;5.306;2022-12-13T04:34:07;100756.56;;;-7.01;96.18
25238;BME280;13185;50.872;5.306;2022-12-13T04:36:32;100752.22;;;-7.00;96.24
25238;BME280;13185;50.872;5.306;2022-12-13T04:39:03;100747.88;;;-7.01;96.19
25238;BME280;13185;50.872;5.306;2022-12-13T04:41:34;100744.41;;;-7.00;96.49
25238;BME280;13185;50.872;5.306;2022-12-13T04:44:00;100741.84;;;-6.97;96.78
25238;BME280;13185;50.872;5.306;2022-12-13T04:46:26;100740.97;;;-6.96;96.96
25238;BME280;13185;50.872;5.306;2022-12-13T04:48:51;100744.44;;;-6.97;96.99
25238;BME280;13185;50.872;5.306;2022-12-13T04:51:17;100740.97;;;-6.96;97.32
25238;BME280;13185;50.872;5.306;2022-12-13T04:53:42;100734.00;;;-6.95;97.31
25238;BME280;13185;50.872;5.306;2022-12-13T04:56:08;100728.81;;;-6.94;97.47
25238;BME280;13185;50.872;5.306;2022-12-13T04:58:33;100722.72;;;-6.91;97.52
25238;BME280;13185;50.872;5.306;2022-12-13T05:00:59;100725.34;;;-6.88;97.82
25238;BME280;13185;50.872;5.306;2022-12-13T05:03:25;100714.94;;;-6.87;98.21
25238;BME280;13185;50.872;5.306;2022-12-13T05:05:52;100714.94;;;-6.84;98.40
25238;BME280;13185;50.872;5.306;2022-12-13T05:08:17;100715.81;;;-6.80;98.76
25238;BME280;13185;50.872;5.306;2022-12-13T05:10:43;100709.72;;;-6.79;98.94
25238;BME280;13185;50.872;5.306;2022-12-13T05:13:08;100714.97;;;-6.75;99.10
25238;BME280;13185;50.872;5.306;2022-12-13T05:15:34;100717.56;;;-6.70;99.20
25238;BME280;13185;50.872;5.306;2022-12-13T05:18:04;100709.75;;;-6.70;99.34
25238;BME280;13185;50.872;5.306;2022-12-13T05:20:30;100714.09;;;-6.69;99.34
25238;BME280;13185;50.872;5.306;2022-12-13T05:22:56;100714.97;;;-6.69;99.59
25238;BME280;13185;50.872;5.306;2022-12-13T05:25:23;100714.09;;;-6.69;99.30
25238;BME280;13185;50.872;5.306;2022-12-13T05:27:48;100723.66;;;-6.70;99.31
25238;BME280;13185;50.872;5.306;2022-12-13T05:30:14;100724.53;;;-6.74;99.17
25238;BME280;13185;50.872;5.306;2022-12-13T05:32:40;100720.19;;;-6.76;98.90
25238;BME280;13185;50.872;5.306;2022-12-13T05:35:06;100714.06;;;-6.78;98.77
25238;BME280;13185;50.872;5.306;2022-12-13T05:37:32;100722.75;;;-6.81;98.63
25238;BME280;13185;50.872;5.306;2022-12-13T05:39:57;100725.38;;;-6.81;98.50
25238;BME280;13185;50.872;5.306;2022-12-13T05:42:23;100732.31;;;-6.81;98.35
25238;BME280;13185;50.872;5.306;2022-12-13T05:44:51;100726.25;;;-6.80;98.26
25238;BME280;13185;50.872;5.306;2022-12-13T05:47:17;100737.53;;;-6.81;98.22
25238;BME280;13185;50.872;5.306;2022-12-13T05:49:42;100736.66;;;-6.82;98.19
25238;BME280;13185;50.872;5.306;2022-12-13T05:52:18;100736.66;;;-6.86;97.87
25238;BME280;13185;50.872;5.306;2022-12-13T05:54:44;100735.75;;;-6.90;97.60
25238;BME280;13185;50.872;5.306;2022-12-13T05:57:10;100737.50;;;-6.93;97.39
25238;BME280;13185;50.872;5.306;2022-12-13T05:59:36;100738.34;;;-6.96;97.25
25238;BME280;13185;50.872;5.306;2022-12-13T06:02:01;100739.19;;;-7.02;97.00
25238;BME280;13185;50.872;5.306;2022-12-13T06:04:27;100742.66;;;-7.04;96.86
25238;BME280;13185;50.872;5.306;2022-12-13T06:06:52;100741.78;;;-7.08;96.70
25238;BME280;13185;50.872;5.306;2022-12-13T06:09:19;100735.69;;;-7.08;96.69
25238;BME280;13185;50.872;5.306;2022-12-13T06:11:45;100742.63;;;-7.12;96.66
25238;BME280;13185;50.872;5.306;2022-12-13T06:14:11;100747.81;;;-7.15;96.29
25238;BME280;13185;50.872;5.306;2022-12-13T06:16:36;100753.03;;;-7.18;96.17
25238;BME280;13185;50.872;5.306;2022-12-13T06:19:02;100747.78;;;-7.19;96.04
25238;BME280;13185;50.872;5.306;2022-12-13T06:21:27;100737.34;;;-7.19;96.04
25238;BME280;13185;50.872;5.306;2022-12-13T06:23:53;100735.59;;;-7.20;96.26
25238;BME280;13185;50.872;5.306;2022-12-13T06:26:19;100734.75;;;-7.22;96.07
25238;BME280;13185;50.872;5.306;2022-12-13T06:28:44;100742.56;;;-7.24;96.37
25238;BME280;13185;50.872;5.306;2022-12-13T06:31:10;100739.06;;;-7.26;96.18
25238;BME280;13185;50.872;5.306;2022-12-13T06:33:35;100729.50;;;-7.27;96.19
25238;BME280;13185;50.872;5.306;2022-12-13T06:36:03;100729.50;;;-7.29;95.79
25238;BME280;13185;50.872;5.306;2022-12-13T06:38:30;100739.03;;;-7.31;95.86
25238;BME280;13185;50.872;5.306;2022-12-13T06:41:05;100738.16;;;-7.33;95.68
25238;BME280;13185;50.872;5.306;2022-12-13T06:43:31;100740.75;;;-7.36;95.47
25238;BME280;13185;50.872;5.306;2022-12-13T06:45:56;100734.66;;;-7.39;95.37
25238;BME280;13185;50.872;5.306;2022-12-13T06:48:22;100734.63;;;-7.44;95.06
25238;BME280;13185;50.872;5.306;2022-12-13T06:50:47;100727.66;;;-7.45;94.86
25238;BME280;13185;50.872;5.306;2022-12-13T06:53:13;100718.06;;;-7.52;94.80
25238;BME280;13185;50.872;5.306;2022-12-13T06:55:38;100726.75;;;-7.53;94.51
25238;BME280;13185;50.872;5.306;2022-12-13T06:58:04;100716.31;;;-7.53;94.73
25238;BME280;13185;50.872;5.306;2022-12-13T07:00:29;100719.78;;;-7.52;94.80
25238;BME280;13185;50.872;5.306;2022-12-13T07:02:55;100720.66;;;-7.52;94.60
25238;BME280;13185;50.872;5.306;2022-12-13T07:05:21;100717.19;;;-7.52;94.58
25238;BME280;13185;50.872;5.306;2022-12-13T07:07:46;100713.75;;;-7.50;94.54
25238;BME280;13185;50.872;5.306;2022-12-13T07:10:12;100711.97;;;-7.51;94.56
25238;BME280;13185;50.872;5.306;2022-12-13T07:12:37;100710.25;;;-7.52;94.48
25238;BME280;13185;50.872;5.306;2022-12-13T07:15:04;100706.78;;;-7.51;94.40
25238;BME280;13185;50.872;5.306;2022-12-13T07:17:30;100707.66;;;-7.50;94.32
25238;BME280;13185;50.872;5.306;2022-12-13T07:19:55;100707.63;;;-7.52;94.40
25238;BME280;13185;50.872;5.306;2022-12-13T07:22:21;100710.25;;;-7.52;94.38
25238;BME280;13185;50.872;5.306;2022-12-13T07:24:46;100718.06;;;-7.50;94.68
25238;BME280;13185;50.872;5.306;2022-12-13T07:27:12;100718.97;;;-7.48;94.74
25238;BME280;13185;50.872;5.306;2022-12-13T07:29:37;100711.16;;;-7.48;94.82
25238;BME280;13185;50.872;5.306;2022-12-13T07:32:03;100712.03;;;-7.48;94.92
25238;BME280;13185;50.872;5.306;2022-12-13T07:34:29;100723.31;;;-7.47;94.82
25238;BME280;13185;50.872;5.306;2022-12-13T07:36:54;100725.91;;;-7.49;94.54
25238;BME280;13185;50.872;5.306;2022-12-13T07:39:22;100729.34;;;-7.51;94.83
25238;BME280;13185;50.872;5.306;2022-12-13T07:41:52;100730.22;;;-7.52;94.72
25238;BME280;13185;50.872;5.306;2022-12-13T07:44:18;100741.50;;;-7.53;94.78
25238;BME280;13185;50.872;5.306;2022-12-13T07:46:44;100743.22;;;-7.54;94.89
25238;BME280;13185;50.872;5.306;2022-12-13T07:49:10;100740.63;;;-7.54;94.82
25238;BME280;13185;50.872;5.306;2022-12-13T07:51:36;100742.34;;;-7.56;95.02
25238;BME280;13185;50.872;5.306;2022-12-13T07:54:02;100737.16;;;-7.54;94.79
25238;BME280;13185;50.872;5.306;2022-12-13T07:56:27;100744.09;;;-7.57;94.55
25238;BME280;13185;50.872;5.306;2022-12-13T07:58:53;100743.22;;;-7.56;94.69
25238;BME280;13185;50.872;5.306;2022-12-13T08:01:18;100748.44;;;-7.54;94.66
25238;BME280;13185;50.872;5.306;2022-12-13T08:03:46;100753.66;;;-7.52;94.60
25238;BME280;13185;50.872;5.306;2022-12-13T08:06:12;100752.84;;;-7.50;94.81
25238;BME280;13185;50.872;5.306;2022-12-13T08:08:38;100760.66;;;-7.45;95.08
25238;BME280;13185;50.872;5.306;2022-12-13T08:11:09;100749.38;;;-7.41;95.29
25238;BME280;13185;50.872;5.306;2022-12-13T08:13:35;100759.00;;;-7.36;95.41
25238;BME280;13185;50.872;5.306;2022-12-13T08:16:06;100764.22;;;-7.30;96.00
25238;BME280;13185;50.872;5.306;2022-12-13T08:18:32;100759.94;;;-7.23;96.38
25238;BME280;13185;50.872;5.306;2022-12-13T08:21:02;100758.25;;;-7.16;96.46
25238;BME280;13185;50.872;5.306;2022-12-13T08:23:29;100748.69;;;-7.10;97.12
25238;BME280;13185;50.872;5.306;2022-12-13T08:25:55;100756.56;;;-7.02;97.71
25238;BME280;13185;50.872;5.306;2022-12-13T08:28:22;100761.81;;;-6.94;98.01
25238;BME280;13185;50.872;5.306;2022-12-13T08:30:48;100754.00;;;-6.90;98.59
25238;BME280;13185;50.872;5.306;2022-12-13T08:33:14;100762.75;;;-6.83;98.84
25238;BME280;13185;50.872;5.306;2022-12-13T08:35:40;100761.00;;;-6.78;99.07
25238;BME280;13185;50.872;5.306;2022-12-13T08:38:06;100761.91;;;-6.70;99.60
25238;BME280;13185;50.872;5.306;2022-12-13T08:40:31;100762.81;;;-6.62;99.93
25238;BME280;13185;50.872;5.306;2022-12-13T08:42:57;100753.28;;;-6.55;100.00
25238;BME280;13185;50.872;5.306;2022-12-13T08:45:22;100755.03;;;-6.47;100.00
25238;BME280;13185;50.872;5.306;2022-12-13T08:47:51;100762.00;;;-6.40;100.00
25238;BME280;13185;50.872;5.306;2022-12-13T08:50:17;100760.31;;;-6.34;100.00
25238;BME280;13185;50.872;5.306;2022-12-13T08:52:42;100764.66;;;-6.29;100.00
25238;BME280;13185;50.872;5.306;2022-12-13T08:55:13;100769.03;;;-6.23;100.00
25238;BME280;13185;50.872;5.306;2022-12-13T08:57:41;100762.06;;;-6.20;100.00
25238;BME280;13185;50.872;5.306;2022-12-13T09:00:09;100770.78;;;-6.13;100.00
25238;BME280;13185;50.872;5.306;2022-12-13T09:02:36;100776.03;;;-6.04;100.00
25238;BME280;13185;50.872;5.306;2022-12-13T09:05:01;100777.75;;;-6.00;100.00
25238;BME280;13185;50.872;5.306;2022-12-13T09:07:27;100779.53;;;-5.93;100.00
25238;BME280;13185;50.872;5.306;2022-12-13T09:09:53;100783.00;;;-5.91;100.00
25238;BME280;13185;50.872;5.306;2022-12-13T09:12:18;100776.00;;;-5.87;100.00
25238;BME280;13185;50.872;5.306;2022-12-13T09:14:44;100775.97;;;-5.86;100.00
25238;BME280;13185;50.872;5.306;2022-12-13T09:17:11;100769.91;;;-5.78;100.00
25238;BME280;13185;50.872;5.306;2022-12-13T09:19:36;100767.28;;;-5.74;100.00
25238;BME280;13185;50.872;5.306;2022-12-13T09:22:01;100776.88;;;-5.67;100.00
25238;BME280;13185;50.872;5.306;2022-12-13T09:24:27;100779.47;;;-5.58;100.00
25238;BME280;13185;50.872;5.306;2022-12-13T09:26:52;100780.34;;;-5.51;100.00
25238;BME280;13185;50.872;5.306;2022-12-13T09:29:19;100782.94;;;-5.43;100.00
25238;BME280;13185;50.872;5.306;2022-12-13T09:31:44;100773.34;;;-5.35;100.00
25238;BME280;13185;50.872;5.306;2022-12-13T09:34:10;100769.88;;;-5.28;100.00
25238;BME280;13185;50.872;5.306;2022-12-13T09:36:36;100774.22;;;-5.19;100.00
25238;BME280;13185;50.872;5.306;2022-12-13T09:39:02;100782.03;;;-5.12;100.00
25238;BME280;13185;50.872;5.306;2022-12-13T09:41:40;100768.06;;;-5.06;100.00
25238;BME280;13185;50.872;5.306;2022-12-13T09:44:23;100781.16;;;-5.05;100.00
25238;BME280;13185;50.872;5.306;2022-12-13T09:46:51;100785.50;;;-4.99;100.00
25238;BME280;13185;50.872;5.306;2022-12-13T09:49:27;100784.59;;;-4.94;100.00
25238;BME280;13185;50.872;5.306;2022-12-13T09:51:57;100770.66;;;-4.88;100.00
25238;BME280;13185;50.872;5.306;2022-12-13T09:54:24;100776.72;;;-4.78;100.00
25238;BME280;13185;50.872;5.306;2022-12-13T09:56:50;100774.94;;;-4.67;100.00
25238;BME280;13185;50.872;5.306;2022-12-13T09:59:27;100755.69;;;-4.60;100.00
25238;BME280;13185;50.872;5.306;2022-12-13T10:01:54;100746.94;;;-4.53;100.00
25238;BME280;13185;50.872;5.306;2022-12-13T10:04:20;100753.03;;;-4.46;100.00
25238;BME280;13185;50.872;5.306;2022-12-13T10:06:50;100752.97;;;-4.40;100.00
25238;BME280;13185;50.872;5.306;2022-12-13T10:09:16;100759.06;;;-4.38;100.00
25238;BME280;13185;50.872;5.306;2022-12-13T10:11:48;100750.31;;;-4.34;100.00
25238;BME280;13185;50.872;5.306;2022-12-13T10:14:36;100752.91;;;-4.29;100.00
25238;BME280;13185;50.872;5.306;2022-12-13T10:17:06;100743.28;;;-4.24;100.00
25238;BME280;13185;50.872;5.306;2022-12-13T10:19:42;100740.59;;;-4.18;100.00
25238;BME280;13185;50.872;5.306;2022-12-13T10:22:11;100742.34;;;-4.13;100.00
25238;BME280;13185;50.872;5.306;2022-12-13T10:27:15;100738.78;;;-4.02;100.00
25238;BME280;13185;50.872;5.306;2022-12-13T10:30:07;100738.75;;;-3.99;100.00
25238;BME280;13185;50.872;5.306;2022-12-13T10:32:51;100737.84;;;-3.94;100.00
25238;BME280;13185;50.872;5.306;2022-12-13T10:35:22;100727.28;;;-3.88;100.00
25238;BME280;13185;50.872;5.306;2022-12-13T10:37:48;100728.13;;;-3.81;100.00
25238;BME280;13185;50.872;5.306;2022-12-13T10:40:34;100727.19;;;-3.74;100.00
25238;BME280;13185;50.872;5.306;2022-12-13T10:43:20;100718.34;;;-3.65;100.00
25238;BME280;13185;50.872;5.306;2022-12-13T10:45:56;100710.41;;;-3.53;100.00
25238;BME280;13185;50.872;5.306;2022-12-13T10:51:12;100702.28;;;-3.29;100.00
25238;BME280;13185;50.872;5.306;2022-12-13T10:53:40;100704.81;;;-3.20;100.00
25238;BME280;13185;50.872;5.306;2022-12-13T10:56:09;100702.94;;;-3.08;100.00
25238;BME280;13185;50.872;5.306;2022-12-13T10:58:41;100687.13;;;-3.04;100.00
25238;BME280;13185;50.872;5.306;2022-12-13T11:04:04;100684.38;;;-2.92;100.00
25238;BME280;13185;50.872;5.306;2022-12-13T11:06:41;100678.13;;;-2.84;100.00
25238;BME280;13185;50.872;5.306;2022-12-13T11:09:36;100678.03;;;-2.77;100.00
25238;BME280;13185;50.872;5.306;2022-12-13T11:12:03;100670.97;;;-2.70;100.00
25238;BME280;13185;50.872;5.306;2022-12-13T11:14:38;100671.72;;;-2.64;100.00
25238;BME280;13185;50.872;5.306;2022-12-13T11:17:19;100667.28;;;-2.58;100.00
25238;BME280;13185;50.872;5.306;2022-12-13T11:19:57;100661.06;;;-2.53;100.00
25238;BME280;13185;50.872;5.306;2022-12-13T11:25:02;100665.34;;;-2.46;100.00
25238;BME280;13185;50.872;5.306;2022-12-13T11:27:43;100659.19;;;-2.43;100.00
25238;BME280;13185;50.872;5.306;2022-12-13T11:30:20;100649.50;;;-2.41;100.00
25238;BME280;13185;50.872;5.306;2022-12-13T11:38:09;100633.56;;;-2.27;100.00
25238;BME280;13185;50.872;5.306;2022-12-13T11:40:53;100635.25;;;-2.25;100.00
25238;BME280;13185;50.872;5.306;2022-12-13T11:43:43;100630.84;;;-2.23;100.00
25238;BME280;13185;50.872;5.306;2022-12-13T11:46:16;100626.41;;;-2.19;100.00
25238;BME280;13185;50.872;5.306;2022-12-13T11:48:52;100626.34;;;-2.15;100.00
25238;BME280;13185;50.872;5.306;2022-12-13T11:51:26;100618.34;;;-2.09;100.00
25238;BME280;13185;50.872;5.306;2022-12-13T11:53:55;100609.47;;;-2.01;100.00
25238;BME280;13185;50.872;5.306;2022-12-13T11:56:34;100599.66;;;-1.92;100.00
25238;BME280;13185;50.872;5.306;2022-12-13T11:59:19;100600.41;;;-1.84;100.00
25238;BME280;13185;50.872;5.306;2022-12-13T12:02:19;100607.22;;;-1.73;100.00
25238;BME280;13185;50.872;5.306;2022-12-13T12:04:50;100601.81;;;-1.66;100.00
25238;BME280;13185;50.872;5.306;2022-12-13T12:07:19;100592.91;;;-1.59;100.00
25238;BME280;13185;50.872;5.306;2022-12-13T12:10:00;100588.41;;;-1.52;100.00
25238;BME280;13185;50.872;5.306;2022-12-13T12:12:32;100590.03;;;-1.47;100.00
25238;BME280;13185;50.872;5.306;2022-12-13T12:15:12;100590.81;;;-1.41;100.00
25238;BME280;13185;50.872;5.306;2022-12-13T12:17:39;100585.44;;;-1.37;100.00
25238;BME280;13185;50.872;5.306;2022-12-13T12:20:11;100583.59;;;-1.32;99.77
25238;BME280;13185;50.872;5.306;2022-12-13T12:35:58;100584.97;;;-1.12;97.10
25238;BME280;13185;50.872;5.306;2022-12-13T12:50:38;100579.94;;;-0.83;96.63
25238;BME280;13185;50.872;5.306;2022-12-13T12:56:00;100574.66;;;-0.84;94.87
25238;BME280;13185;50.872;5.306;2022-12-13T13:03:34;100580.56;;;-0.73;95.30
25238;BME280;13185;50.872;5.306;2022-12-13T13:10:52;100564.75;;;-0.72;94.19
25238;BME280;13185;50.872;5.306;2022-12-13T13:16:28;100554.19;;;-0.70;94.25
25238;BME280;13185;50.872;5.306;2022-12-13T13:19:01;100548.00;;;-0.69;94.40
25238;BME280;13185;50.872;5.306;2022-12-13T13:26:36;100557.63;;;-0.68;93.05
25238;BME280;13185;50.872;5.306;2022-12-13T13:34:43;100546.09;;;-0.64;92.69
25238;BME280;13185;50.872;5.306;2022-12-13T13:40:02;100551.28;;;-0.60;92.57
25238;BME280;13185;50.872;5.306;2022-12-13T13:45:27;100548.47;;;-0.53;93.03
25238;BME280;13185;50.872;5.306;2022-12-13T13:51:05;100542.44;;;-0.57;93.50
25238;BME280;13185;50.872;5.306;2022-12-13T13:57:09;100542.53;;;-0.60;93.87
25238;BME280;13185;50.872;5.306;2022-12-13T14:19:14;100522.66;;;-0.75;93.60
25238;BME280;13185;50.872;5.306;2022-12-13T14:24:52;100515.00;;;-0.48;93.05
25238;BME280;13185;50.872;5.306;2022-12-13T14:27:37;100510.69;;;-0.51;92.76
25238;BME280;13185;50.872;5.306;2022-12-13T14:30:04;100502.88;;;-0.55;92.67
25238;BME280;13185;50.872;5.306;2022-12-13T14:32:33;100501.97;;;-0.54;93.27
25238;BME280;13185;50.872;5.306;2022-12-13T14:35:03;100502.75;;;-0.49;92.94
25238;BME280;13185;50.872;5.306;2022-12-13T14:37:34;100502.75;;;-0.49;92.96
25238;BME280;13185;50.872;5.306;2022-12-13T14:40:31;100494.75;;;-0.46;92.58
25238;BME280;13185;50.872;5.306;2022-12-13T14:42:57;100493.88;;;-0.47;92.52
25238;BME280;13185;50.872;5.306;2022-12-13T14:45:28;100493.81;;;-0.44;92.64
25238;BME280;13185;50.872;5.306;2022-12-13T14:47:59;100484.13;;;-0.43;92.37
25238;BME280;13185;50.872;5.306;2022-12-13T14:50:27;100480.72;;;-0.47;91.50
25238;BME280;13185;50.872;5.306;2022-12-13T14:52:56;100481.66;;;-0.49;91.70
25238;BME280;13185;50.872;5.306;2022-12-13T14:55:29;100482.50;;;-0.47;91.73
25238;BME280;13185;50.872;5.306;2022-12-13T14:57:58;100470.41;;;-0.56;90.49
25238;BME280;13185;50.872;5.306;2022-12-13T15:02:52;100469.84;;;-0.69;90.67
25238;BME280;13185;50.872;5.306;2022-12-13T15:05:44;100463.78;;;-0.71;91.09
25238;BME280;13185;50.872;5.306;2022-12-13T15:08:16;100450.66;;;-0.74;91.14
25238;BME280;13185;50.872;5.306;2022-12-13T15:10:47;100456.88;;;-0.76;90.80
25238;BME280;13185;50.872;5.306;2022-12-13T15:13:42;100453.47;;;-0.80;91.01